Time;durP1;ratioP1;P1;durP2;ratioP2;P2;SDS_P1;SDS_P2;PMS_P1;PMS_P2;Temp;Humidity;BMP_temperature;BMP_pressure;BME280_temperature;BME280_humidity;BME280_pressure;Samples;Min_cycle;Max_cycle;Signal;HPM_P1;HPM_P2
2024/02/29 00:00:14;;;;;;;14.32;8.57;;;8.40;99.90;;;;;;4897644;29;20254;-76
2024/02/29 00:02:40;;;;;;;11.57;8.23;;;8.30;99.90;;;;;;4896040;29;20213;-76
2024/02/29 00:05:07;;;;;;;12.40;8.23;;;8.40;99.90;;;;;;4898325;29;20174;-76
2024/02/29 00:07:32;;;;;;;10.02;7.15;;;8.30;99.90;;;;;;4902785;29;20642;-76
2024/02/29 00:09:58;;;;;;;10.10;7.47;;;8.30;99.90;;;;;;4902092;29;20215;-76
2024/02/29 00:12:24;;;;;;;16.37;7.93;;;8.30;99.90;;;;;;4899023;29;20186;-76
2024/02/29 00:14:51;;;;;;;13.10;8.73;;;8.30;99.90;;;;;;4913872;29;20621;-76
2024/02/29 00:17:17;;;;;;;10.02;8.15;;;8.20;99.90;;;;;;4898922;29;20198;-75
2024/02/29 00:19:43;;;;;;;10.85;6.18;;;8.20;99.90;;;;;;4897004;29;20246;-76
2024/02/29 00:22:09;;;;;;;12.53;6.50;;;8.20;99.90;;;;;;4896940;29;20178;-75
2024/02/29 00:24:35;;;;;;;9.63;6.45;;;8.20;99.90;;;;;;4895594;29;21007;-76
2024/02/29 00:27:01;;;;;;;12.07;8.20;;;8.10;99.90;;;;;;4900220;29;20187;-76
2024/02/29 00:29:28;;;;;;;14.77;8.47;;;8.10;99.90;;;;;;4915527;29;20641;-76
2024/02/29 00:32:00;;;;;;;10.65;6.90;;;8.00;99.90;;;;;;4898434;29;20698;-76
2024/02/29 00:34:29;;;;;;;12.60;8.10;;;8.00;99.90;;;;;;4883192;29;20221;-76
2024/02/29 00:36:56;;;;;;;10.77;7.88;;;8.00;99.90;;;;;;4887121;29;20182;-76
2024/02/29 00:39:22;;;;;;;10.60;6.93;;;7.90;99.90;;;;;;4896564;29;20211;-76
2024/02/29 00:41:47;;;;;;;10.00;6.85;;;7.90;99.90;;;;;;4896653;29;20178;-76
2024/02/29 00:44:14;;;;;;;10.47;6.80;;;7.90;99.90;;;;;;4898607;29;20586;-76
2024/02/29 00:46:40;;;;;;;14.02;8.27;;;7.80;99.90;;;;;;4894827;29;20197;-75
2024/02/29 00:49:06;;;;;;;11.60;7.00;;;7.90;99.90;;;;;;4896339;29;20216;-75
2024/02/29 00:51:32;;;;;;;12.20;7.90;;;7.80;99.90;;;;;;4894956;29;20195;-75
2024/02/29 00:53:58;;;;;;;10.65;7.30;;;7.80;99.90;;;;;;4895088;29;20642;-75
2024/02/29 00:56:25;;;;;;;11.88;7.47;;;7.80;99.90;;;;;;4895849;29;20219;-75
2024/02/29 00:58:51;;;;;;;14.43;8.13;;;7.80;99.90;;;;;;4895949;29;20254;-75
2024/02/29 01:01:17;;;;;;;10.77;8.25;;;7.80;99.90;;;;;;4897696;29;20284;-75
2024/02/29 01:03:42;;;;;;;9.87;6.33;;;7.70;99.90;;;;;;4896312;29;20673;-76
2024/02/29 01:06:09;;;;;;;10.57;6.90;;;7.70;99.90;;;;;;4886914;29;20654;-76
2024/02/29 01:08:35;;;;;;;9.50;6.80;;;7.70;99.90;;;;;;4895191;29;20642;-76
2024/02/29 01:11:03;;;;;;;12.35;8.30;;;7.70;99.90;;;;;;4894698;29;20220;-75
2024/02/29 01:13:32;;;;;;;14.05;8.63;;;7.60;99.90;;;;;;4896375;29;20266;-76
2024/02/29 01:15:58;;;;;;;12.05;8.25;;;7.70;99.90;;;;;;4886265;29;20194;-76
2024/02/29 01:18:24;;;;;;;12.03;8.20;;;7.60;99.90;;;;;;4895898;29;20221;-76
2024/02/29 01:20:49;;;;;;;11.90;7.27;;;7.60;99.90;;;;;;4898784;29;20273;-76
2024/02/29 01:23:15;;;;;;;13.53;9.27;;;7.60;99.90;;;;;;4887334;29;20705;-76
2024/02/29 01:25:41;;;;;;;16.57;9.87;;;7.60;99.90;;;;;;4896295;29;20265;-76
2024/02/29 01:28:07;;;;;;;16.07;9.90;;;7.50;99.90;;;;;;4894226;29;20198;-76
2024/02/29 01:30:32;;;;;;;12.30;7.67;;;7.50;99.90;;;;;;4895699;29;21169;-75
2024/02/29 01:32:58;;;;;;;11.30;8.83;;;7.50;99.90;;;;;;4894568;29;20292;-76
2024/02/29 01:35:24;;;;;;;10.90;8.43;;;7.50;99.90;;;;;;4879290;29;20190;-75
2024/02/29 01:37:50;;;;;;;13.53;9.13;;;7.50;99.90;;;;;;4894828;29;20209;-75
2024/02/29 01:40:18;;;;;;;13.83;8.00;;;7.50;99.90;;;;;;4887499;29;20539;-74
2024/02/29 01:42:43;;;;;;;14.45;9.23;;;7.50;99.90;;;;;;4910228;29;20682;-75
2024/02/29 01:45:11;;;;;;;13.90;8.40;;;7.50;99.90;;;;;;4895504;29;20274;-74
2024/02/29 01:47:36;;;;;;;12.15;7.95;;;7.40;99.90;;;;;;4894280;29;20622;-75
2024/02/29 01:50:03;;;;;;;9.70;7.23;;;7.40;99.90;;;;;;4888665;29;20182;-74
2024/02/29 01:52:32;;;;;;;9.70;8.10;;;7.40;99.90;;;;;;4910276;29;20968;-75
2024/02/29 01:54:58;;;;;;;13.27;8.93;;;7.40;99.90;;;;;;4894579;29;20182;-74
2024/02/29 01:57:24;;;;;;;12.85;8.18;;;7.40;99.90;;;;;;4899586;29;20210;-75
2024/02/29 01:59:50;;;;;;;13.63;9.43;;;7.40;99.90;;;;;;4894331;29;20276;-75
2024/02/29 02:02:16;;;;;;;13.50;8.90;;;7.30;99.90;;;;;;4895322;29;20322;-75
2024/02/29 02:04:41;;;;;;;11.37;8.40;;;7.30;99.90;;;;;;4903678;29;20591;-79
2024/02/29 02:07:09;;;;;;;14.10;7.80;;;7.30;99.90;;;;;;4910829;29;20217;-78
2024/02/29 02:09:40;;;;;;;13.88;10.00;;;7.30;99.90;;;;;;4908288;29;20214;-78
2024/02/29 02:12:10;;;;;;;15.80;9.65;;;7.30;99.90;;;;;;4889079;29;20206;-78
2024/02/29 02:14:36;;;;;;;11.40;8.77;;;7.30;99.90;;;;;;4906701;29;20212;-78
2024/02/29 02:17:02;;;;;;;12.40;7.75;;;7.30;99.90;;;;;;4914368;29;20170;-78
2024/02/29 02:19:28;;;;;;;12.10;8.83;;;7.30;99.90;;;;;;4912145;29;20268;-79
2024/02/29 02:21:53;;;;;;;9.37;7.83;;;7.30;99.90;;;;;;4916536;29;20226;-79
2024/02/29 02:24:20;;;;;;;11.37;8.30;;;7.20;99.90;;;;;;4919252;29;20167;-79
2024/02/29 02:26:46;;;;;;;13.07;10.00;;;7.20;99.90;;;;;;4921035;29;20169;-79
2024/02/29 02:29:12;;;;;;;14.33;9.43;;;7.20;99.90;;;;;;4923585;29;20194;-80
2024/02/29 02:31:37;;;;;;;11.83;7.67;;;7.20;99.90;;;;;;4923683;29;20178;-80
2024/02/29 02:34:03;;;;;;;13.73;9.20;;;7.10;99.90;;;;;;4914929;29;20218;-80
2024/02/29 02:36:29;;;;;;;11.03;7.93;;;7.10;99.90;;;;;;4909256;29;20186;-81
2024/02/29 02:38:55;;;;;;;14.60;9.23;;;7.10;99.90;;;;;;4919286;29;21425;-80
2024/02/29 02:41:22;;;;;;;13.50;8.67;;;7.10;99.90;;;;;;4902851;29;20185;-80
2024/02/29 02:43:50;;;;;;;12.27;8.57;;;7.10;99.90;;;;;;4908174;29;21004;-80
2024/02/29 02:46:19;;;;;;;11.95;8.15;;;7.10;99.90;;;;;;4897607;29;20207;-80
2024/02/29 02:48:44;;;;;;;17.35;10.65;;;7.10;99.90;;;;;;4907435;29;20558;-80
2024/02/29 02:51:10;;;;;;;14.20;8.70;;;7.10;99.90;;;;;;4918696;29;20214;-80
2024/02/29 02:53:36;;;;;;;14.10;9.80;;;7.10;99.90;;;;;;4911039;29;20217;-79
2024/02/29 02:56:03;;;;;;;13.83;9.10;;;7.00;99.90;;;;;;4918636;29;20185;-79
2024/02/29 02:58:29;;;;;;;14.57;9.95;;;7.00;99.90;;;;;;4906447;29;20209;-79
2024/02/29 03:00:55;;;;;;;14.00;9.02;;;7.00;99.90;;;;;;4914686;29;20178;-80
2024/02/29 03:03:21;;;;;;;17.60;11.10;;;7.00;99.90;;;;;;4908002;29;20190;-79
2024/02/29 03:05:47;;;;;;;18.23;12.43;;;6.90;99.90;;;;;;4906884;29;20650;-79
2024/02/29 03:08:13;;;;;;;14.90;10.52;;;6.90;99.90;;;;;;4905802;29;20677;-80
2024/02/29 03:10:39;;;;;;;19.60;10.00;;;6.90;99.90;;;;;;4902278;29;20191;-79
2024/02/29 03:13:04;;;;;;;14.37;9.57;;;6.90;99.90;;;;;;4890431;29;20669;-79
2024/02/29 03:15:30;;;;;;;14.27;10.10;;;6.90;99.90;;;;;;4891239;29;20187;-79
2024/02/29 03:17:56;;;;;;;16.23;10.40;;;6.90;99.90;;;;;;4890881;29;20286;-79
2024/02/29 03:20:22;;;;;;;18.73;11.83;;;6.90;99.90;;;;;;4910625;29;20184;-79
2024/02/29 03:22:48;;;;;;;13.35;9.10;;;6.80;99.90;;;;;;4914224;29;20170;-79
2024/02/29 03:25:14;;;;;;;16.20;11.10;;;6.80;99.90;;;;;;4917606;29;20201;-79
2024/02/29 03:27:40;;;;;;;16.95;11.27;;;6.80;99.90;;;;;;4917517;29;20199;-79
2024/02/29 03:30:06;;;;;;;18.13;12.47;;;6.80;99.90;;;;;;4900023;29;20175;-79
2024/02/29 03:32:31;;;;;;;14.82;10.50;;;6.80;99.90;;;;;;4896420;29;20178;-79
2024/02/29 03:34:57;;;;;;;17.43;11.10;;;6.70;99.90;;;;;;4912327;29;20206;-79
2024/02/29 03:37:23;;;;;;;13.60;9.57;;;6.70;99.90;;;;;;4917251;29;20205;-79
2024/02/29 03:39:48;;;;;;;15.27;11.20;;;6.70;99.90;;;;;;4917083;29;20178;-79
2024/02/29 03:42:16;;;;;;;13.83;9.00;;;6.70;99.90;;;;;;4908053;29;20194;-79
2024/02/29 03:44:43;;;;;;;15.80;10.38;;;6.70;99.90;;;;;;4893077;29;20211;-79
2024/02/29 03:47:10;;;;;;;17.02;10.00;;;6.70;99.90;;;;;;4898141;29;20250;-79
2024/02/29 03:49:36;;;;;;;14.10;9.38;;;6.60;99.90;;;;;;4908816;29;20182;-79
2024/02/29 03:52:02;;;;;;;14.00;9.27;;;6.60;99.90;;;;;;4911792;29;20178;-79
2024/02/29 03:54:28;;;;;;;16.17;10.32;;;6.60;99.90;;;;;;4912767;29;20575;-79
2024/02/29 03:57:00;;;;;;;15.63;10.90;;;6.60;99.90;;;;;;4912617;29;20183;-79
2024/02/29 03:59:26;;;;;;;16.73;10.32;;;6.60;99.90;;;;;;4879988;29;20595;-80
2024/02/29 04:01:52;;;;;;;11.43;7.70;;;6.60;99.90;;;;;;4921037;29;20185;-79
2024/02/29 04:04:19;;;;;;;15.23;9.57;;;6.60;99.90;;;;;;4902964;29;20637;-76
2024/02/29 04:06:46;;;;;;;14.27;9.05;;;6.60;99.90;;;;;;4897238;29;20186;-76
2024/02/29 04:09:12;;;;;;;13.50;8.20;;;6.50;99.90;;;;;;4895975;29;20202;-75
2024/02/29 04:11:38;;;;;;;15.60;10.65;;;6.60;99.90;;;;;;4897275;29;20179;-76
2024/02/29 04:14:04;;;;;;;11.77;8.70;;;6.60;99.90;;;;;;4895325;29;20254;-77
2024/02/29 04:16:35;;;;;;;14.10;9.38;;;6.60;99.90;;;;;;4895072;29;20231;-77
2024/02/29 04:19:01;;;;;;;11.88;8.02;;;6.50;99.90;;;;;;4895080;29;20214;-77
2024/02/29 04:21:27;;;;;;;13.15;9.63;;;6.50;99.90;;;;;;4896510;29;20266;-76
2024/02/29 04:23:53;;;;;;;15.20;10.83;;;6.50;99.90;;;;;;4896517;29;20186;-77
2024/02/29 04:26:19;;;;;;;17.67;9.57;;;6.50;99.90;;;;;;4883451;29;21192;-77
2024/02/29 04:28:44;;;;;;;18.37;11.90;;;6.50;99.90;;;;;;4910951;29;20210;-77
2024/02/29 04:31:10;;;;;;;15.30;10.63;;;6.40;99.90;;;;;;4894947;29;20598;-77
2024/02/29 04:33:36;;;;;;;17.13;11.40;;;6.40;99.90;;;;;;4894782;29;20772;-77
2024/02/29 04:36:01;;;;;;;16.60;11.27;;;6.40;99.90;;;;;;4896118;29;20182;-78
2024/02/29 04:38:27;;;;;;;19.80;11.90;;;6.40;99.90;;;;;;4896705;29;20206;-78
2024/02/29 04:40:54;;;;;;;19.50;11.97;;;6.40;99.90;;;;;;4896251;29;20178;-78
2024/02/29 04:43:20;;;;;;;20.05;11.90;;;6.40;99.90;;;;;;4896111;29;20534;-78
2024/02/29 04:45:46;;;;;;;18.20;12.10;;;6.30;99.90;;;;;;4896120;29;20182;-78
2024/02/29 04:48:12;;;;;;;22.83;12.90;;;6.30;99.90;;;;;;4894276;29;20198;-78
2024/02/29 04:50:37;;;;;;;19.80;12.00;;;6.30;99.90;;;;;;4895445;29;20182;-79
2024/02/29 04:53:03;;;;;;;19.63;11.80;;;6.30;99.90;;;;;;4896089;29;20739;-78
2024/02/29 04:55:30;;;;;;;15.37;10.97;;;6.40;99.90;;;;;;4894779;29;20235;-77
2024/02/29 04:57:55;;;;;;;19.98;12.70;;;6.30;99.90;;;;;;4895043;29;20622;-77
2024/02/29 05:00:21;;;;;;;18.90;12.87;;;6.30;99.90;;;;;;4895960;29;20174;-77
2024/02/29 05:02:47;;;;;;;17.47;12.60;;;6.30;99.90;;;;;;4898553;29;20602;-77
2024/02/29 05:05:13;;;;;;;20.07;12.90;;;6.30;99.90;;;;;;4898376;29;20189;-78
2024/02/29 05:07:39;;;;;;;19.95;13.63;;;6.30;99.90;;;;;;4899527;29;20242;-78
2024/02/29 05:10:07;;;;;;;20.53;12.37;;;6.30;99.90;;;;;;4899862;29;20246;-78
2024/02/29 05:12:33;;;;;;;21.08;14.52;;;6.30;99.90;;;;;;4899912;29;20594;-78
2024/02/29 05:14:59;;;;;;;16.33;11.00;;;6.30;99.90;;;;;;4894270;29;20234;-78
2024/02/29 05:17:25;;;;;;;23.50;14.97;;;6.30;99.90;;;;;;4894859;29;20217;-78
2024/02/29 05:19:51;;;;;;;21.20;12.60;;;6.30;99.90;;;;;;4894389;29;21212;-76
2024/02/29 05:22:18;;;;;;;17.95;10.40;;;6.30;99.90;;;;;;4896235;29;20621;-76
2024/02/29 05:24:43;;;;;;;21.65;13.82;;;6.30;99.90;;;;;;4896314;29;20186;-76
2024/02/29 05:27:09;;;;;;;19.13;11.80;;;6.20;99.90;;;;;;4894982;29;20186;-76
2024/02/29 05:29:35;;;;;;;19.47;13.57;;;6.30;99.90;;;;;;4883508;29;20193;-76
2024/02/29 05:32:01;;;;;;;20.30;14.23;;;6.20;99.90;;;;;;4884785;29;20186;-76
2024/02/29 05:34:26;;;;;;;21.77;14.33;;;6.30;99.90;;;;;;4895808;29;20627;-76
2024/02/29 05:36:52;;;;;;;18.97;11.70;;;6.20;99.90;;;;;;4898958;29;20538;-76
2024/02/29 05:39:18;;;;;;;20.57;13.90;;;6.20;99.90;;;;;;4896203;29;20214;-76
2024/02/29 05:41:43;;;;;;;23.07;14.10;;;6.20;99.90;;;;;;4899529;29;20178;-76
2024/02/29 05:44:09;;;;;;;23.70;13.90;;;6.20;99.90;;;;;;4894923;29;20174;-76
2024/02/29 05:46:35;;;;;;;21.33;13.13;;;6.20;99.90;;;;;;4896116;29;20542;-76
2024/02/29 05:49:02;;;;;;;21.58;14.50;;;6.20;99.90;;;;;;4894672;29;20210;-77
2024/02/29 05:51:27;;;;;;;21.08;13.80;;;6.20;99.90;;;;;;4896099;29;20174;-76
2024/02/29 05:53:54;;;;;;;19.57;13.40;;;6.20;99.90;;;;;;4896349;29;20206;-77
2024/02/29 05:56:20;;;;;;;20.98;15.10;;;6.20;99.90;;;;;;4894686;29;20593;-77
2024/02/29 05:58:46;;;;;;;18.80;12.83;;;6.20;99.90;;;;;;4896108;29;20565;-77
2024/02/29 06:01:11;;;;;;;20.70;12.87;;;6.20;99.90;;;;;;4896415;29;20571;-76
2024/02/29 06:03:37;;;;;;;21.70;13.97;;;6.20;99.90;;;;;;4883122;29;20178;-76
2024/02/29 06:06:04;;;;;;;20.83;13.00;;;6.20;99.90;;;;;;4899897;29;20219;-77
2024/02/29 06:08:30;;;;;;;18.55;12.07;;;6.20;99.90;;;;;;4898478;29;20206;-77
2024/02/29 06:10:56;;;;;;;19.00;11.93;;;6.20;99.90;;;;;;4899684;29;20183;-77
2024/02/29 06:13:22;;;;;;;16.60;11.75;;;6.20;99.90;;;;;;4890508;29;20218;-77
2024/02/29 06:15:48;;;;;;;21.53;14.43;;;6.20;99.90;;;;;;4898348;29;20238;-77
2024/02/29 06:18:14;;;;;;;22.33;14.00;;;6.20;99.90;;;;;;4903515;29;20944;-76
2024/02/29 06:20:39;;;;;;;23.50;15.50;;;6.20;99.90;;;;;;4899728;29;20793;-77
2024/02/29 06:23:05;;;;;;;21.40;13.90;;;6.20;99.90;;;;;;4899506;29;20661;-77
2024/02/29 06:25:31;;;;;;;19.47;12.43;;;6.20;99.90;;;;;;4899401;29;20563;-77
2024/02/29 06:27:57;;;;;;;22.03;13.73;;;6.20;99.90;;;;;;4899255;29;20724;-77
2024/02/29 06:30:31;;;;;;;22.25;13.50;;;6.20;99.90;;;;;;4899460;29;20586;-77
2024/02/29 06:33:00;;;;;;;21.38;13.30;;;6.20;99.90;;;;;;4899376;29;20240;-77
2024/02/29 06:35:27;;;;;;;21.98;14.10;;;6.20;99.90;;;;;;4898255;29;20170;-77
2024/02/29 06:37:53;;;;;;;19.10;13.48;;;6.20;99.90;;;;;;4898053;29;20530;-76
2024/02/29 06:40:21;;;;;;;21.33;13.27;;;6.20;99.90;;;;;;4899215;29;20229;-76
2024/02/29 06:42:50;;;;;;;21.40;13.65;;;6.20;99.90;;;;;;4898260;29;20739;-76
2024/02/29 06:45:16;;;;;;;20.23;13.40;;;6.20;99.90;;;;;;4880822;29;20194;-76
2024/02/29 06:47:42;;;;;;;21.48;14.23;;;6.20;99.90;;;;;;4899332;29;20585;-76
2024/02/29 06:50:10;;;;;;;22.25;12.93;;;6.20;99.90;;;;;;4897580;29;20221;-76
2024/02/29 06:52:36;;;;;;;20.33;13.23;;;6.20;99.90;;;;;;4896833;29;20182;-75
2024/02/29 06:55:06;;;;;;;18.80;13.10;;;6.30;99.90;;;;;;4904993;29;20197;-75
2024/02/29 06:57:33;;;;;;;21.73;14.02;;;6.30;99.90;;;;;;4905630;29;20685;-75
2024/02/29 06:59:58;;;;;;;19.65;11.65;;;6.20;99.90;;;;;;4898127;29;20185;-75
2024/02/29 07:02:24;;;;;;;18.60;12.50;;;6.30;99.90;;;;;;4898231;29;20183;-75
2024/02/29 07:04:50;;;;;;;19.67;13.23;;;6.30;99.90;;;;;;4901746;29;20668;-76
2024/02/29 07:07:16;;;;;;;20.03;11.87;;;6.40;99.90;;;;;;4896366;29;20229;-76
2024/02/29 07:09:42;;;;;;;19.17;12.53;;;6.40;99.90;;;;;;4897016;29;20558;-75
2024/02/29 07:12:08;;;;;;;23.35;12.63;;;6.50;99.90;;;;;;4897204;29;20257;-75
2024/02/29 07:14:34;;;;;;;18.65;12.30;;;6.50;99.90;;;;;;4885466;29;20206;-76
2024/02/29 07:17:00;;;;;;;18.20;10.53;;;6.50;99.90;;;;;;4893851;29;20170;-76
2024/02/29 07:19:26;;;;;;;19.83;12.60;;;6.60;99.90;;;;;;4896600;29;20266;-75
2024/02/29 07:21:53;;;;;;;18.67;12.73;;;6.60;99.90;;;;;;4896857;29;20170;-76
2024/02/29 07:24:18;;;;;;;15.65;11.13;;;6.70;99.90;;;;;;4898141;29;20615;-76
2024/02/29 07:26:45;;;;;;;17.53;11.50;;;6.70;99.90;;;;;;4897304;29;20194;-76
2024/02/29 07:29:11;;;;;;;16.00;12.10;;;6.80;99.90;;;;;;4896425;29;20205;-76
2024/02/29 07:31:40;;;;;;;20.40;12.55;;;6.90;99.90;;;;;;4897644;29;20675;-76
2024/02/29 07:34:06;;;;;;;15.10;10.80;;;6.90;99.90;;;;;;4897556;29;20613;-76
2024/02/29 07:36:32;;;;;;;18.87;11.60;;;7.00;99.90;;;;;;4900835;29;20172;-76
2024/02/29 07:38:57;;;;;;;18.80;11.90;;;7.10;99.90;;;;;;4901316;29;20285;-76
2024/02/29 07:41:23;;;;;;;14.20;9.90;;;7.10;99.90;;;;;;4897272;29;20194;-77
2024/02/29 07:43:49;;;;;;;16.43;10.60;;;7.20;99.90;;;;;;4897329;29;20676;-77
2024/02/29 07:46:16;;;;;;;16.10;11.37;;;7.20;99.90;;;;;;4893714;29;20231;-76
2024/02/29 07:48:42;;;;;;;16.80;10.05;;;7.30;99.90;;;;;;4899102;29;20217;-76
2024/02/29 07:51:09;;;;;;;12.65;9.55;;;7.30;99.90;;;;;;4895580;29;20257;-76
2024/02/29 07:53:34;;;;;;;16.23;9.30;;;7.30;99.90;;;;;;4897586;29;20198;-75
2024/02/29 07:56:04;;;;;;;15.67;10.30;;;7.40;99.90;;;;;;4895530;29;20261;-76
2024/02/29 07:58:30;;;;;;;13.32;9.20;;;7.50;99.90;;;;;;4892310;29;20725;-76
2024/02/29 08:00:56;;;;;;;11.40;8.07;;;7.50;99.90;;;;;;4892682;29;20182;-77
2024/02/29 08:03:22;;;;;;;15.68;9.80;;;7.60;99.90;;;;;;4888218;29;20182;-77
2024/02/29 08:06:30;;;;;;;13.63;9.33;;;7.70;99.90;;;;;;4896596;29;20197;-77
2024/02/29 08:08:55;;;;;;;16.80;11.88;;;7.80;99.90;;;;;;4892477;29;20232;-76
2024/02/29 08:11:22;;;;;;;16.43;10.70;;;7.90;99.90;;;;;;4899706;29;20677;-76
2024/02/29 08:13:48;;;;;;;15.30;10.77;;;7.90;99.90;;;;;;4895881;29;20194;-76
2024/02/29 08:16:13;;;;;;;15.80;10.43;;;8.00;99.90;;;;;;4887703;29;20180;-76
2024/02/29 08:18:39;;;;;;;13.20;8.70;;;8.10;99.90;;;;;;4896168;29;20218;-76
2024/02/29 08:21:05;;;;;;;14.67;9.43;;;8.20;99.90;;;;;;4895926;29;20182;-76
2024/02/29 08:23:30;;;;;;;16.90;10.47;;;8.30;99.90;;;;;;4896077;29;20195;-77
2024/02/29 08:25:56;;;;;;;15.77;10.63;;;8.40;99.90;;;;;;4895279;29;20273;-77
2024/02/29 08:28:22;;;;;;;13.50;9.63;;;8.70;99.90;;;;;;4896447;29;20202;-77
2024/02/29 08:30:47;;;;;;;14.60;10.93;;;9.10;99.90;;;;;;4895423;29;20197;-77
2024/02/29 08:33:13;;;;;;;14.30;9.63;;;9.60;99.90;;;;;;4894814;29;20210;-77
2024/02/29 08:35:39;;;;;;;14.20;9.47;;;10.20;99.90;;;;;;4896042;29;20183;-77
2024/02/29 08:38:05;;;;;;;13.60;10.07;;;10.70;99.90;;;;;;4897409;29;20330;-76
2024/02/29 08:40:30;;;;;;;13.60;9.83;;;11.20;99.90;;;;;;4893366;29;20183;-77
2024/02/29 08:42:56;;;;;;;13.53;9.60;;;11.90;99.90;;;;;;4894027;29;20690;-77
2024/02/29 08:45:22;;;;;;;12.23;8.80;;;12.60;99.90;;;;;;4896599;29;20657;-77
2024/02/29 08:47:49;;;;;;;12.23;9.30;;;13.40;99.90;;;;;;4899293;29;20210;-77
2024/02/29 08:50:15;;;;;;;13.20;9.60;;;14.10;99.90;;;;;;4895586;29;20665;-77
2024/02/29 08:52:41;;;;;;;11.17;8.57;;;14.70;99.90;;;;;;4895504;29;21160;-75
2024/02/29 08:55:08;;;;;;;12.23;8.20;;;15.10;99.90;;;;;;4895909;29;20557;-75
2024/02/29 08:57:34;;;;;;;10.60;9.17;;;15.30;99.90;;;;;;4888104;29;20619;-76
2024/02/29 09:00:00;;;;;;;12.17;8.90;;;15.10;99.90;;;;;;4896133;29;20593;-76
2024/02/29 09:02:27;;;;;;;12.53;9.80;;;14.80;99.70;;;;;;4910350;29;20591;-75
2024/02/29 09:04:53;;;;;;;9.33;7.80;;;14.60;99.90;;;;;;4895626;29;20595;-75
2024/02/29 09:07:18;;;;;;;11.13;8.47;;;14.40;99.90;;;;;;4895395;29;21133;-76
2024/02/29 09:09:44;;;;;;;12.70;9.03;;;14.40;99.90;;;;;;4894550;29;20594;-75
2024/02/29 09:12:12;;;;;;;11.10;8.60;;;14.30;99.90;;;;;;4894419;29;20182;-75
2024/02/29 09:14:37;;;;;;;11.90;8.80;;;14.30;99.90;;;;;;4895961;29;20276;-76
2024/02/29 09:17:04;;;;;;;12.60;8.60;;;14.30;99.90;;;;;;4893756;29;20618;-76
2024/02/29 09:19:31;;;;;;;11.30;8.60;;;14.40;99.90;;;;;;4893923;29;20591;-76
2024/02/29 09:21:56;;;;;;;13.50;9.77;;;14.40;99.90;;;;;;4895647;29;20582;-76
2024/02/29 09:24:22;;;;;;;11.60;7.67;;;14.40;99.90;;;;;;4893001;29;20628;-77
2024/02/29 09:26:48;;;;;;;11.10;8.60;;;14.30;99.90;;;;;;4895461;29;20265;-77
2024/02/29 09:29:14;;;;;;;13.70;8.60;;;14.10;99.90;;;;;;4895632;29;20231;-77
2024/02/29 09:31:41;;;;;;;14.73;8.53;;;13.90;99.70;;;;;;4894644;29;20599;-77
2024/02/29 09:34:07;;;;;;;11.30;8.03;;;13.70;99.30;;;;;;4895586;29;20614;-78
2024/02/29 09:36:33;;;;;;;10.10;8.00;;;13.60;98.90;;;;;;4894453;29;20595;-77
2024/02/29 09:38:59;;;;;;;11.37;9.03;;;13.50;99.90;;;;;;4894317;29;20669;-77
2024/02/29 09:41:25;;;;;;;11.43;8.47;;;13.40;98.50;;;;;;4895637;29;20587;-77
2024/02/29 09:43:51;;;;;;;10.07;7.10;;;13.30;98.50;;;;;;4892975;29;20602;-77
2024/02/29 09:46:17;;;;;;;9.17;6.40;;;13.30;99.10;;;;;;4892908;29;20595;-77
2024/02/29 09:48:44;;;;;;;10.10;7.90;;;13.30;99.90;;;;;;4892672;29;21345;-77
2024/02/29 09:51:14;;;;;;;13.70;7.40;;;13.60;99.90;;;;;;4894271;29;20222;-77
2024/02/29 09:53:40;;;;;;;10.20;7.23;;;13.70;99.70;;;;;;4885096;29;20638;-77
2024/02/29 09:56:09;;;;;;;10.60;7.57;;;13.80;99.90;;;;;;4894002;29;20682;-78
2024/02/29 09:58:36;;;;;;;11.90;7.60;;;13.80;98.00;;;;;;4901863;29;21186;-78
2024/02/29 10:01:03;;;;;;;9.67;7.37;;;13.80;99.70;;;;;;4894929;29;21158;-77
2024/02/29 10:03:30;;;;;;;9.17;6.87;;;13.90;99.50;;;;;;4898104;29;20594;-77
2024/02/29 10:05:58;;;;;;;10.37;6.27;;;13.90;98.60;;;;;;4894722;29;20579;-77
2024/02/29 10:08:24;;;;;;;9.00;7.07;;;13.80;98.90;;;;;;4886909;29;20630;-77
2024/02/29 10:10:50;;;;;;;11.30;6.90;;;13.80;99.20;;;;;;4894721;29;20953;-77
2024/02/29 10:13:16;;;;;;;9.77;6.67;;;13.70;99.70;;;;;;4894558;29;20637;-77
2024/02/29 10:15:42;;;;;;;10.23;7.00;;;13.60;97.80;;;;;;4896025;29;20582;-77
2024/02/29 10:18:07;;;;;;;9.20;6.97;;;13.50;98.00;;;;;;4895528;29;20305;-77
2024/02/29 10:20:33;;;;;;;9.57;6.73;;;13.40;99.00;;;;;;4880417;29;20678;-77
2024/02/29 10:22:59;;;;;;;10.20;6.27;;;13.60;99.10;;;;;;4896454;29;20186;-77
2024/02/29 10:25:26;;;;;;;9.27;5.93;;;13.60;99.80;;;;;;4886476;29;20187;-77
2024/02/29 10:28:01;;;;;;;9.13;6.47;;;13.70;99.90;;;;;;4877235;29;20607;-77
2024/02/29 10:30:27;;;;;;;7.23;5.50;;;13.70;97.90;;;;;;4885389;29;20623;-77
2024/02/29 10:32:53;;;;;;;7.53;5.93;;;13.80;98.40;;;;;;4881609;29;20595;-77
2024/02/29 10:35:20;;;;;;;7.57;5.60;;;13.90;98.70;;;;;;4891905;29;20947;-77
2024/02/29 10:37:47;;;;;;;12.13;6.93;;;13.90;96.90;;;;;;4895704;29;20569;-77
2024/02/29 10:40:13;;;;;;;8.27;5.77;;;14.00;98.00;;;;;;4892682;29;21034;-77
2024/02/29 10:42:40;;;;;;;8.73;6.60;;;14.10;98.10;;;;;;4894559;29;20690;-76
2024/02/29 10:45:15;;;;;;;8.37;6.00;;;14.20;98.30;;;;;;4894980;29;20593;-76
2024/02/29 10:48:04;;;;;;;8.23;6.33;;;14.20;97.40;;;;;;4887268;29;20614;-76
2024/02/29 10:50:35;;;;;;;9.53;7.20;;;14.10;94.20;;;;;;4896633;29;21016;-76
2024/02/29 10:53:24;;;;;;;8.27;6.60;;;14.00;95.30;;;;;;4898368;29;20707;-76
2024/02/29 10:55:56;;;;;;;14.67;6.13;;;13.80;93.40;;;;;;4892092;29;20591;-76
2024/02/29 10:58:26;;;;;;;7.93;5.30;;;13.90;95.90;;;;;;4898291;29;20610;-76
2024/02/29 11:00:52;;;;;;;8.33;6.10;;;13.80;95.80;;;;;;4896855;29;20582;-76
2024/02/29 11:03:19;;;;;;;6.47;4.97;;;13.80;96.10;;;;;;4898022;29;20599;-76
2024/02/29 11:05:46;;;;;;;7.93;5.20;;;13.80;95.70;;;;;;4898316;29;20586;-76
2024/02/29 11:08:12;;;;;;;6.00;5.03;;;13.80;96.60;;;;;;4897835;29;21017;-76
2024/02/29 11:10:38;;;;;;;9.83;5.90;;;13.80;94.80;;;;;;4898070;29;20686;-77
2024/02/29 11:13:04;;;;;;;7.57;4.70;;;13.70;95.10;;;;;;4896773;29;21271;-76
2024/02/29 11:15:31;;;;;;;8.23;5.67;;;13.80;96.70;;;;;;4898847;29;20210;-76
2024/02/29 11:17:59;;;;;;;10.20;7.30;;;13.90;96.30;;;;;;4899183;29;20666;-76
2024/02/29 11:20:25;;;;;;;8.50;6.40;;;13.90;95.80;;;;;;4901581;29;20594;-76
2024/02/29 11:23:03;;;;;;;8.67;6.10;;;13.90;95.70;;;;;;4896611;29;21224;-76
2024/02/29 11:25:31;;;;;;;9.70;7.40;;;13.90;95.00;;;;;;4897862;29;20610;-76
2024/02/29 11:28:03;;;;;;;8.90;6.27;;;13.90;95.80;;;;;;4895916;29;20709;-76
2024/02/29 11:30:30;;;;;;;7.10;5.43;;;13.90;95.20;;;;;;4897536;29;20954;-76
2024/02/29 11:33:08;;;;;;;7.60;5.50;;;13.90;95.50;;;;;;4897528;29;20594;-75
2024/02/29 11:35:34;;;;;;;9.03;6.17;;;13.90;95.90;;;;;;4896394;29;20595;-75
2024/02/29 11:38:02;;;;;;;7.53;5.40;;;14.00;97.10;;;;;;4895913;29;20614;-77
2024/02/29 11:40:34;;;;;;;8.70;5.30;;;14.00;96.60;;;;;;4897517;29;20597;-76
2024/02/29 11:43:01;;;;;;;8.40;5.93;;;14.10;97.40;;;;;;4896199;29;20598;-77
2024/02/29 11:45:27;;;;;;;8.17;6.53;;;14.20;97.40;;;;;;4896410;29;20633;-77
2024/02/29 11:47:53;;;;;;;9.77;6.20;;;14.10;95.50;;;;;;4897169;29;21320;-76
2024/02/29 11:50:19;;;;;;;7.70;5.60;;;14.10;94.50;;;;;;4897048;29;21118;-76
2024/02/29 11:52:44;;;;;;;6.37;5.30;;;14.00;94.60;;;;;;4898523;29;20230;-76
2024/02/29 11:55:10;;;;;;;6.83;5.03;;;14.00;95.60;;;;;;4882685;29;20238;-76
2024/02/29 11:57:36;;;;;;;13.37;6.77;;;13.80;94.80;;;;;;4895261;29;20258;-76
2024/02/29 12:00:04;;;;;;;10.03;6.33;;;13.80;95.30;;;;;;4896867;29;20189;-76
2024/02/29 12:02:30;;;;;;;10.80;7.00;;;13.90;96.00;;;;;;4897199;29;20186;-77
2024/02/29 12:04:57;;;;;;;8.27;5.93;;;13.80;95.10;;;;;;4897264;29;20950;-76
2024/02/29 12:07:25;;;;;;;9.17;5.07;;;13.80;95.90;;;;;;4879545;29;20186;-76
2024/02/29 12:09:50;;;;;;;9.53;5.53;;;13.80;96.00;;;;;;4895767;29;21009;-76
2024/02/29 12:12:16;;;;;;;7.60;5.50;;;13.80;96.00;;;;;;4896868;29;20598;-76
2024/02/29 12:14:42;;;;;;;8.50;5.50;;;13.80;96.40;;;;;;4899924;29;20255;-76
2024/02/29 12:17:08;;;;;;;6.97;5.53;;;13.90;96.50;;;;;;4889847;29;20187;-76
2024/02/29 12:19:34;;;;;;;6.27;5.23;;;13.80;95.90;;;;;;4894293;29;20598;-76
2024/02/29 12:22:00;;;;;;;6.93;5.27;;;13.90;96.20;;;;;;4896932;29;20190;-76
2024/02/29 12:24:26;;;;;;;6.03;4.43;;;13.90;96.80;;;;;;4895593;29;20693;-76
2024/02/29 12:26:52;;;;;;;7.67;4.80;;;13.90;96.90;;;;;;4900006;29;20596;-76
2024/02/29 12:29:18;;;;;;;6.27;4.27;;;13.90;96.40;;;;;;4889119;29;20623;-76
2024/02/29 12:31:44;;;;;;;6.20;4.53;;;14.00;97.10;;;;;;4890351;29;20186;-76
2024/02/29 12:34:10;;;;;;;7.50;4.90;;;14.00;96.50;;;;;;4896678;29;20206;-76
2024/02/29 12:36:35;;;;;;;4.83;3.50;;;14.00;96.30;;;;;;4894856;29;20610;-76
2024/02/29 12:39:02;;;;;;;7.43;4.87;;;14.10;97.10;;;;;;4897126;29;20194;-76